PFNO

Details ICAO PFNO (ORV)
Name NOORVIK Robert Bob Curtis
Region USA (Alaska)
Timezone America/Anchorage (UTC-9.0)
Plans Departing 0
Arriving 0
Stats Elevation 55 ft / 17 m (AMSL)
Location 66.823157° -161.025018°
Runways 2
Magnetic Variation 12.272° E
Sunrise 2017-12-15 21:40:33 UTC / 2017-12-15 12:40:33 Local
Sunset 2017-12-15 23:41:09 UTC / 2017-12-15 14:41:09 Local
Advertisement - Login to hide

Runways

ID Width Length Bearing (true) Bearing (mag) Surface Threshold Offset Overrun Length
06 98 ft / 30 m 4,040 ft / 1,231 m 72.29° 60.02° Gravel 0 ft / 0 m 0 ft / 0 m
21 49 ft / 15 m 2,202 ft / 671 m 220.00° 207.73° Dirt 0 ft / 0 m 0 ft / 0 m
24 98 ft / 30 m 4,040 ft / 1,231 m 252.32° 240.05° Gravel 0 ft / 0 m 0 ft / 0 m
3 49 ft / 15 m 2,202 ft / 671 m 39.99° 27.72° Dirt 0 ft / 0 m 0 ft / 0 m

Map

Weather


0- 5 10 15 20 25 30 35+ Temperature / ° C

Clouds and Precipitation
Forecast for 2017-12-16 12:00 UTC. Updated 35 minutes ago

Ground ~20,000 ft ~40,000 ft Winds

METAR

PFNO 160656Z AUTO 07015KT 10SM OVC050 M07/M08 A2929 RMK AO2 PK WND 06028/0557 SNE02 SLP917 P0000 T10721083 FZRANO

TAF

Not found

Frequencies

Recorded 120.00 MHz AWOS-3
Approach 119.20 MHz Anchorage ARTCC
Unicom 122.70 MHz CTAF
Warning: Do not use this data for real-world aviation or navigation. No guarantee of current accuracy is given.